Time;durP1;ratioP1;P1;durP2;ratioP2;P2;SDS_P1;SDS_P2;PMS_P1;PMS_P2;Temp;Humidity;BMP_temperature;BMP_pressure;BME280_temperature;BME280_humidity;BME280_pressure;Samples;Min_cycle;Max_cycle;Signal;HPM_P1;HPM_P2
2021/06/25 00:01:12;;;;;;;21.42;7.05;;;;;;;30.54;46.29;101170.25;143720;580;47013;-63
2021/06/25 00:03:39;;;;;;;25.52;6.72;;;;;;;30.54;46.20;101170.25;143720;617;47002;-63
2021/06/25 00:06:05;;;;;;;16.75;5.60;;;;;;;30.51;43.62;101161.78;143722;577;46925;-64
2021/06/25 00:08:32;;;;;;;13.50;5.85;;;;;;;30.46;42.88;101159.16;143721;637;47004;-64
2021/06/25 00:10:58;;;;;;;16.27;5.37;;;;;;;30.44;42.51;101161.44;143715;576;47010;-63
2021/06/25 00:13:25;;;;;;;14.25;5.28;;;;;;;30.43;42.78;101159.81;143714;678;48005;-64
2021/06/25 00:15:51;;;;;;;17.65;5.15;;;;;;;30.36;43.85;101157.53;143719;604;46008;-63
2021/06/25 00:18:18;;;;;;;15.57;6.72;;;;;;;30.35;43.73;101153.13;143720;609;47004;-65
2021/06/25 00:20:44;;;;;;;14.38;5.72;;;;;;;30.35;44.36;101151.19;143719;601;47010;-64
2021/06/25 00:23:11;;;;;;;19.48;6.53;;;;;;;30.31;44.12;101146.56;143719;567;47006;-65
2021/06/25 00:25:37;;;;;;;17.58;5.90;;;;;;;30.28;44.23;101147.22;143724;580;46006;-64
2021/06/25 00:28:04;;;;;;;17.45;5.53;;;;;;;30.28;44.37;101148.06;143723;594;47002;-65
2021/06/25 00:30:30;;;;;;;17.17;5.75;;;;;;;30.29;44.91;101141.38;143720;569;47004;-64
2021/06/25 00:32:56;;;;;;;14.00;5.50;;;;;;;30.31;45.09;101141.03;143721;596;47006;-65
2021/06/25 00:35:23;;;;;;;22.48;6.35;;;;;;;30.29;42.91;101141.38;143720;586;47006;-65
2021/06/25 00:37:49;;;;;;;16.83;5.22;;;;;;;30.29;42.78;101143.31;143718;589;47002;-65
2021/06/25 00:40:16;;;;;;;16.80;5.55;;;;;;;30.30;42.59;101151.31;143719;576;47010;-64
2021/06/25 00:42:42;;;;;;;17.37;5.43;;;;;;;30.32;43.23;101154.59;143722;588;47006;-65
2021/06/25 00:45:19;;;;;;;19.20;5.53;;;;;;;30.29;43.74;101155.22;143723;603;46007;-64
2021/06/25 00:47:48;;;;;;;18.95;6.37;;;;;;;30.27;44.07;101153.94;143721;572;47004;-64
2021/06/25 00:50:24;;;;;;;20.30;6.45;;;;;;;30.25;43.68;101154.22;143720;641;47010;-64
2021/06/25 00:52:55;;;;;;;15.60;5.20;;;;;;;30.25;43.48;101159.78;143718;650;47006;-63
2021/06/25 00:55:26;;;;;;;16.80;6.35;;;;;;;30.24;45.85;101156.19;143714;578;48919;-65
2021/06/25 00:57:53;;;;;;;20.23;6.53;;;;;;;30.25;46.48;101168.91;143723;572;47006;-65
2021/06/25 01:00:21;;;;;;;20.10;6.12;;;;;;;30.27;46.44;101173.31;143720;567;47022;-63
2021/06/25 01:02:47;;;;;;;24.87;6.35;;;;;;;30.22;46.86;101161.25;143721;618;47004;-65
2021/06/25 01:05:16;;;;;;;21.48;7.12;;;;;;;30.24;45.97;101158.97;143719;591;46008;-64
2021/06/25 01:07:42;;;;;;;20.48;6.15;;;;;;;30.21;46.29;101156.00;143722;690;47006;-64
2021/06/25 01:10:10;;;;;;;18.73;6.70;;;;;;;30.18;45.84;101162.22;143718;608;47010;-64
2021/06/25 01:12:42;;;;;;;18.55;6.37;;;;;;;30.15;44.40;101146.25;143724;620;47002;-64
2021/06/25 01:15:09;;;;;;;12.75;5.32;;;;;;;30.13;44.21;101148.50;143720;568;48018;-64
2021/06/25 01:17:38;;;;;;;17.40;6.05;;;;;;;30.08;44.30;101141.16;143723;584;47002;-64
2021/06/25 01:20:09;;;;;;;23.33;6.53;;;;;;;30.05;43.81;101141.81;143724;694;47010;-64
2021/06/25 01:22:38;;;;;;;20.00;6.57;;;;;;;30.01;43.65;101138.03;143720;592;47006;-65
2021/06/25 01:25:29;;;;;;;16.58;5.95;;;;;;;30.00;43.45;101133.62;143721;688;46008;-64
2021/06/25 01:27:59;;;;;;;17.55;5.60;;;;;;;29.99;43.25;101134.78;143724;573;47004;-65
2021/06/25 01:30:38;;;;;;;20.05;5.53;;;;;;;30.00;43.41;101144.72;143720;664;46010;-64
2021/06/25 01:33:08;;;;;;;20.67;5.55;;;;;;;30.00;42.99;101141.94;143720;627;47006;-65
2021/06/25 01:35:36;;;;;;;14.50;5.60;;;;;;;30.00;43.32;101136.41;143721;579;46007;-64
2021/06/25 01:38:03;;;;;;;18.80;6.32;;;;;;;30.01;43.72;101129.72;143719;579;47004;-64
2021/06/25 01:40:29;;;;;;;14.10;5.62;;;;;;;29.97;44.11;101135.09;143723;593;47004;-64
2021/06/25 01:42:58;;;;;;;15.18;6.28;;;;;;;29.93;44.44;101139.63;143721;567;47004;-64
2021/06/25 01:45:26;;;;;;;15.98;5.68;;;;;;;29.89;44.53;101141.38;143721;670;46008;-64
2021/06/25 01:47:53;;;;;;;21.85;6.05;;;;;;;29.86;45.12;101134.53;143724;607;47006;-64
2021/06/25 01:50:29;;;;;;;23.80;6.35;;;;;;;29.82;46.13;101141.84;143722;629;47010;-63
2021/06/25 01:52:59;;;;;;;13.80;6.75;;;;;;;29.82;46.99;101146.59;143720;567;47006;-64
2021/06/25 01:55:27;;;;;;;20.52;6.50;;;;;;;29.79;46.77;101143.31;143722;610;46008;-63
2021/06/25 01:57:54;;;;;;;22.73;6.53;;;;;;;29.80;46.42;101142.19;143721;582;47004;-65
2021/06/25 02:00:21;;;;;;;21.27;6.47;;;;;;;29.77;46.47;101142.81;143719;761;48006;-64
2021/06/25 02:02:48;;;;;;;19.98;6.72;;;;;;;29.76;46.44;101143.13;143720;624;47006;-64
2021/06/25 02:05:15;;;;;;;15.40;6.53;;;;;;;29.78;46.52;101147.22;143718;573;47006;-65
2021/06/25 02:07:42;;;;;;;17.40;6.50;;;;;;;29.74;47.08;101137.91;143722;599;46006;-64
2021/06/25 02:10:11;;;;;;;21.00;6.57;;;;;;;29.75;46.90;101133.19;143720;586;47012;-63
2021/06/25 02:12:38;;;;;;;14.82;6.37;;;;;;;29.74;46.61;101131.56;143720;609;47007;-63
2021/06/25 02:15:07;;;;;;;19.70;7.65;;;;;;;29.73;46.76;101139.06;143723;623;46006;-64
2021/06/25 02:17:33;;;;;;;14.57;6.75;;;;;;;29.72;46.46;101140.19;143720;581;47004;-64
2021/06/25 02:20:00;;;;;;;18.58;6.85;;;;;;;29.72;46.05;101140.19;143718;567;47010;-64
2021/06/25 02:22:26;;;;;;;16.15;7.12;;;;;;;29.74;45.65;101135.16;143721;653;47006;-64
2021/06/25 02:24:53;;;;;;;18.55;6.32;;;;;;;29.77;44.91;101140.06;143724;675;47008;-64
2021/06/25 02:27:19;;;;;;;22.05;7.32;;;;;;;29.79;45.69;101134.19;143722;609;47002;-65
2021/06/25 02:29:46;;;;;;;21.87;7.25;;;;;;;29.79;46.06;101134.19;143721;669;46010;-64
2021/06/25 02:32:12;;;;;;;19.58;7.12;;;;;;;29.79;46.16;101132.25;143721;582;47004;-64
2021/06/25 02:34:39;;;;;;;23.55;7.00;;;;;;;29.77;46.37;101128.16;143724;583;46008;-64
2021/06/25 02:37:06;;;;;;;18.58;6.82;;;;;;;29.76;46.28;101135.66;143726;587;47004;-64
2021/06/25 02:39:32;;;;;;;19.65;6.00;;;;;;;29.75;45.79;101133.19;143720;594;47010;-64
2021/06/25 02:41:58;;;;;;;17.80;6.62;;;;;;;29.73;46.27;101130.75;143722;616;47004;-65
2021/06/25 02:44:25;;;;;;;21.62;7.10;;;;;;;29.71;46.03;101123.91;143718;567;46927;-64
2021/06/25 02:46:51;;;;;;;18.02;5.93;;;;;;;29.67;45.10;101128.44;143718;647;47004;-64
2021/06/25 02:49:18;;;;;;;18.33;6.05;;;;;;;29.68;44.60;101133.66;143723;588;47012;-64
2021/06/25 02:51:45;;;;;;;18.23;5.85;;;;;;;29.68;44.08;101130.06;143724;579;47004;-64
2021/06/25 02:54:11;;;;;;;15.50;5.50;;;;;;;29.65;43.51;101128.78;143725;598;46006;-64
2021/06/25 02:56:38;;;;;;;11.50;5.12;;;;;;;29.61;43.73;101142.41;143723;651;47002;-64
2021/06/25 02:59:04;;;;;;;16.95;5.60;;;;;;;29.62;43.75;101132.97;143722;597;47013;-64
2021/06/25 03:01:31;;;;;;;25.23;6.30;;;;;;;29.60;43.30;101134.44;143720;739;47006;-63
2021/06/25 03:03:58;;;;;;;19.73;7.05;;;;;;;29.61;43.16;101145.19;143718;572;47006;-64
2021/06/25 03:06:24;;;;;;;23.12;5.82;;;;;;;29.57;43.41;101140.59;143728;630;47004;-64
2021/06/25 03:08:51;;;;;;;18.90;7.18;;;;;;;29.57;43.74;101137.84;143718;608;47012;-65
2021/06/25 03:11:18;;;;;;;16.12;6.32;;;;;;;29.54;44.26;101135.69;143721;585;47006;-64
2021/06/25 03:13:44;;;;;;;17.67;6.00;;;;;;;29.52;44.91;101135.19;143722;577;46920;-64
2021/06/25 03:16:11;;;;;;;23.73;6.40;;;;;;;29.48;44.52;101137.78;143723;592;47002;-64
2021/06/25 03:18:37;;;;;;;19.48;6.53;;;;;;;29.46;44.72;101129.00;143722;584;47012;-64
2021/06/25 03:21:04;;;;;;;22.02;7.40;;;;;;;29.43;45.23;101124.91;143720;589;47006;-64
2021/06/25 03:23:31;;;;;;;25.30;7.43;;;;;;;29.42;45.59;101131.59;143722;577;47006;-64
2021/06/25 03:25:57;;;;;;;30.23;7.62;;;;;;;29.40;45.75;101133.00;143722;598;47000;-63
2021/06/25 03:28:24;;;;;;;20.12;6.68;;;;;;;29.40;45.70;101133.00;143718;585;47012;-63
2021/06/25 03:30:50;;;;;;;16.30;6.95;;;;;;;29.40;45.70;101133.00;143723;589;47002;-64
2021/06/25 03:33:17;;;;;;;23.23;6.82;;;;;;;29.43;45.59;101135.97;143719;567;46008;-70
2021/06/25 03:35:44;;;;;;;21.42;6.50;;;;;;;29.43;46.06;101144.28;143722;589;47000;-63
2021/06/25 03:38:11;;;;;;;24.00;6.50;;;;;;;29.45;46.10;101139.25;143723;700;46008;-62
2021/06/25 03:40:38;;;;;;;23.42;6.35;;;;;;;29.53;44.79;101145.13;143725;596;47004;-64
2021/06/25 03:43:05;;;;;;;25.10;6.35;;;;;;;29.61;44.03;101147.16;143722;570;46009;-65
2021/06/25 03:45:32;;;;;;;18.48;6.35;;;;;;;29.67;44.10;101147.81;143723;688;47004;-64
2021/06/25 03:47:58;;;;;;;18.08;6.40;;;;;;;29.69;44.73;101157.44;143723;630;46012;-64
2021/06/25 03:50:25;;;;;;;18.92;5.90;;;;;;;29.69;45.22;101154.66;143720;591;47004;-65
2021/06/25 03:52:51;;;;;;;15.98;6.05;;;;;;;29.71;45.23;101155.16;143721;609;46006;-64
2021/06/25 03:55:18;;;;;;;16.67;6.22;;;;;;;29.71;44.99;101151.59;143726;572;47004;-64
2021/06/25 03:57:45;;;;;;;19.95;6.72;;;;;;;29.71;44.92;101157.94;143718;622;47009;-64
2021/06/25 04:00:15;;;;;;;23.55;6.75;;;;;;;29.74;45.07;101162.03;143720;572;47004;-64
2021/06/25 04:02:42;;;;;;;22.30;7.40;;;;;;;29.73;45.36;101163.97;143724;585;47008;-64
2021/06/25 04:05:09;;;;;;;21.35;6.70;;;;;;;29.73;45.72;101163.16;143719;620;47004;-65
2021/06/25 04:07:37;;;;;;;21.98;7.70;;;;;;;29.75;45.17;101167.25;143721;569;47010;-64
2021/06/25 04:10:06;;;;;;;17.85;7.45;;;;;;;29.76;44.97;101170.81;143720;690;47006;-64
2021/06/25 04:12:33;;;;;;;29.08;7.10;;;;;;;29.78;45.23;101174.91;143721;719;47009;-64
2021/06/25 04:15:00;;;;;;;24.63;7.80;;;;;;;29.80;45.93;101171.81;143726;573;47004;-64
2021/06/25 04:17:28;;;;;;;25.62;9.27;;;;;;;29.79;46.06;101179.31;143720;573;47012;-64
2021/06/25 04:19:54;;;;;;;21.02;6.95;;;;;;;29.78;46.41;101174.91;143721;606;47004;-64
2021/06/25 04:22:20;;;;;;;22.23;7.25;;;;;;;29.79;46.22;101176.53;143719;624;46923;-64
2021/06/25 04:24:50;;;;;;;23.83;7.87;;;;;;;29.83;46.36;101181.44;143722;599;47006;-64
2021/06/25 04:27:18;;;;;;;25.45;6.82;;;;;;;29.82;45.99;101185.34;143717;584;47005;-64
2021/06/25 04:29:45;;;;;;;28.83;6.95;;;;;;;29.82;46.09;101179.81;143719;593;47006;-64
2021/06/25 04:32:15;;;;;;;23.87;6.53;;;;;;;29.84;46.33;101183.06;143719;635;46919;-64
2021/06/25 04:34:42;;;;;;;23.62;6.35;;;;;;;29.87;45.80;101180.47;143718;605;47002;-64
2021/06/25 04:37:08;;;;;;;22.58;7.28;;;;;;;29.90;45.54;101190.94;143722;572;47013;-64
2021/06/25 04:39:35;;;;;;;21.45;8.80;;;;;;;29.93;46.10;101192.22;143721;576;47004;-64
2021/06/25 04:42:02;;;;;;;25.02;8.85;;;;;;;29.97;45.70;101179.41;143720;667;46009;-64
2021/06/25 04:44:28;;;;;;;23.67;8.20;;;;;;;30.03;45.91;101193.94;143719;693;47004;-65
2021/06/25 04:46:55;;;;;;;23.30;7.68;;;;;;;30.07;45.97;101195.72;143719;567;46012;-64
2021/06/25 04:49:21;;;;;;;28.60;7.65;;;;;;;30.10;46.12;101194.28;143718;709;47006;-64
2021/06/25 04:51:48;;;;;;;20.55;7.45;;;;;;;30.14;46.94;101198.03;143721;689;47006;-65
2021/06/25 04:54:14;;;;;;;25.25;8.85;;;;;;;30.16;47.35;101190.22;143716;636;47002;-64
2021/06/25 04:56:41;;;;;;;20.92;7.30;;;;;;;30.18;47.03;101185.19;143720;577;47012;-64
2021/06/25 04:59:07;;;;;;;18.67;8.10;;;;;;;30.21;47.24;101189.25;143721;567;47004;-63
2021/06/25 05:01:34;;;;;;;25.85;7.85;;;;;;;30.27;47.78;101192.72;143721;566;47008;-63
2021/06/25 05:04:00;;;;;;;26.92;7.43;;;;;;;30.30;47.47;101192.06;143722;587;47004;-62
2021/06/25 05:06:27;;;;;;;27.58;9.13;;;;;;;30.31;47.75;101183.44;143719;628;46008;-65
2021/06/25 05:08:53;;;;;;;26.98;8.98;;;;;;;30.35;48.26;101184.44;143717;590;47006;-66
2021/06/25 05:11:20;;;;;;;30.33;8.73;;;;;;;30.40;47.47;101186.22;143715;596;47003;-65
2021/06/25 05:13:46;;;;;;;27.00;9.25;;;;;;;30.43;48.72;101184.75;143721;603;47002;-66
2021/06/25 05:16:14;;;;;;;30.85;16.42;;;;;;;30.46;47.60;101181.34;143718;584;46927;-66
2021/06/25 05:18:41;;;;;;;27.80;9.20;;;;;;;30.50;48.24;101185.09;143713;567;47005;-68
2021/06/25 05:21:07;;;;;;;28.50;8.68;;;;;;;30.53;47.55;101181.69;143719;628;46008;-68
2021/06/25 05:23:34;;;;;;;32.53;9.13;;;;;;;30.57;47.34;101181.88;143722;652;47002;-65
2021/06/25 05:26:02;;;;;;;21.15;8.00;;;;;;;30.60;47.07;101187.59;143720;574;46925;-63
2021/06/25 05:28:28;;;;;;;22.40;7.40;;;;;;;30.64;46.46;101185.81;143719;569;47004;-63
2021/06/25 05:30:55;;;;;;;17.80;6.78;;;;;;;30.69;47.97;101182.87;143716;626;46925;-62
2021/06/25 05:33:21;;;;;;;22.83;6.82;;;;;;;30.72;46.43;101177.78;143721;589;47004;-62
2021/06/25 05:35:48;;;;;;;20.50;7.25;;;;;;;30.74;46.15;101181.91;143718;586;46008;-62
2021/06/25 05:38:15;;;;;;;25.45;7.50;;;;;;;30.75;45.80;101179.94;143716;581;47006;-63
2021/06/25 05:40:42;;;;;;;25.88;6.62;;;;;;;30.79;43.65;101175.38;143719;593;46006;-62
2021/06/25 05:43:09;;;;;;;24.77;6.78;;;;;;;30.83;44.35;101181.91;143721;728;47002;-62
2021/06/25 05:45:37;;;;;;;21.35;6.93;;;;;;;30.87;45.91;101177.34;143718;589;46032;-63
2021/06/25 05:48:04;;;;;;;25.10;7.70;;;;;;;30.92;45.36;101188.25;143715;591;47006;-62
2021/06/25 05:50:31;;;;;;;22.55;7.25;;;;;;;30.96;45.58;101188.44;143720;608;47006;-63
2021/06/25 05:52:57;;;;;;;22.42;6.50;;;;;;;31.00;44.38;101184.66;143726;606;46006;-62
2021/06/25 05:55:24;;;;;;;22.67;6.65;;;;;;;31.04;44.34;101189.56;143717;599;47012;-63
2021/06/25 05:57:51;;;;;;;21.65;6.60;;;;;;;31.09;44.28;101190.22;143719;627;47006;-63
2021/06/25 06:00:19;;;;;;;23.40;7.87;;;;;;;31.14;44.14;101183.72;143717;612;46006;-62
2021/06/25 06:02:46;;;;;;;20.95;8.35;;;;;;;31.20;43.85;101190.72;143718;585;47004;-63
2021/06/25 06:05:13;;;;;;;20.17;7.12;;;;;;;31.21;44.53;101177.66;143720;605;46013;-63
2021/06/25 06:07:40;;;;;;;36.05;7.05;;;;;;;31.24;43.83;101177.00;143718;584;47004;-62
2021/06/25 06:10:07;;;;;;;23.87;6.78;;;;;;;31.27;43.71;101177.16;143719;573;46925;-62
2021/06/25 06:12:34;;;;;;;22.02;8.65;;;;;;;31.33;43.64;101186.13;143717;583;47007;-62
2021/06/25 06:15:00;;;;;;;21.75;8.88;;;;;;;31.38;43.33;101185.16;143721;581;46024;-64
2021/06/25 06:17:27;;;;;;;21.65;6.40;;;;;;;31.41;44.15;101185.28;143719;572;47004;-64
2021/06/25 06:19:54;;;;;;;29.05;8.43;;;;;;;31.37;47.64;101192.66;143719;567;46008;-63
2021/06/25 06:33:23;;;;;;;23.55;8.02;;;;;;;31.38;45.95;101193.47;143714;575;51002;-63
2021/06/25 06:35:50;;;;;;;29.55;7.85;;;;;;;31.43;47.48;101191.34;143719;595;47008;-63
2021/06/25 06:38:17;;;;;;;27.30;8.35;;;;;;;31.49;47.34;101194.75;143712;675;48004;-63
2021/06/25 06:40:44;;;;;;;16.77;6.93;;;;;;;31.50;46.93;101198.34;143720;585;46009;-63
2021/06/25 06:43:11;;;;;;;27.48;8.38;;;;;;;31.55;45.56;101198.16;143718;584;47004;-63
2021/06/25 06:45:38;;;;;;;19.58;8.70;;;;;;;31.63;45.48;101197.34;143716;613;47010;-64
2021/06/25 06:48:05;;;;;;;32.90;9.35;;;;;;;31.68;45.51;101188.81;143717;583;47006;-63
2021/06/25 06:50:32;;;;;;;17.70;7.47;;;;;;;31.71;45.44;101196.50;143718;573;46008;-64
2021/06/25 06:52:58;;;;;;;27.45;7.53;;;;;;;31.73;45.28;101198.97;143722;584;47004;-63
2021/06/25 06:55:25;;;;;;;27.83;7.43;;;;;;;31.80;45.64;101199.25;143717;624;47008;-64
2021/06/25 06:57:52;;;;;;;26.20;7.07;;;;;;;31.87;45.88;101193.19;143718;645;47006;-64
2021/06/25 07:00:19;;;;;;;25.17;7.28;;;;;;;31.88;45.43;101205.91;143721;573;46006;-63
2021/06/25 07:02:46;;;;;;;20.23;7.62;;;;;;;31.96;45.54;101207.84;143723;584;47004;-63
2021/06/25 07:05:15;;;;;;;26.27;7.62;;;;;;;31.99;44.61;101201.62;143720;605;46011;-63
2021/06/25 07:07:42;;;;;;;28.20;8.70;;;;;;;32.02;45.01;101209.31;143715;602;47994;-63
2021/06/25 07:10:10;;;;;;;24.70;8.50;;;;;;;32.02;44.54;101202.94;143718;586;46016;-64
2021/06/25 07:12:39;;;;;;;27.17;7.62;;;;;;;32.03;43.70;101202.63;143716;600;47004;-64
2021/06/25 07:15:06;;;;;;;26.87;8.20;;;;;;;32.12;43.17;101202.56;143717;626;46008;-64
2021/06/25 07:17:33;;;;;;;16.62;7.22;;;;;;;32.19;42.68;101202.84;143718;577;47004;-64
2021/06/25 07:19:59;;;;;;;26.23;7.53;;;;;;;32.21;41.53;101208.09;143719;583;47008;-64
2021/06/25 07:22:26;;;;;;;29.33;6.87;;;;;;;32.25;41.92;101199.87;143721;586;47004;-64
2021/06/25 07:24:53;;;;;;;20.02;6.43;;;;;;;32.31;42.14;101202.16;143717;611;47010;-64
2021/06/25 07:27:19;;;;;;;23.95;7.03;;;;;;;32.34;42.32;101195.09;143719;610;47006;-63
2021/06/25 07:29:46;;;;;;;21.30;6.75;;;;;;;32.35;41.25;101200.34;143720;622;46006;-64
2021/06/25 07:32:12;;;;;;;25.08;6.97;;;;;;;32.40;41.61;101196.53;143725;574;47006;-63
2021/06/25 07:34:39;;;;;;;22.45;6.75;;;;;;;32.44;41.79;101202.25;143720;630;46011;-64
2021/06/25 07:37:05;;;;;;;22.80;5.68;;;;;;;32.53;41.30;101205.78;143717;589;47006;-63
2021/06/25 07:39:32;;;;;;;23.02;7.47;;;;;;;32.54;39.84;101201.88;143717;567;46006;-64
2021/06/25 07:41:59;;;;;;;19.30;6.55;;;;;;;32.54;39.16;101203.81;143722;572;47007;-64
2021/06/25 07:44:25;;;;;;;23.60;6.30;;;;;;;32.63;38.14;101202.59;143722;661;46918;-64
2021/06/25 07:46:51;;;;;;;26.55;7.93;;;;;;;32.72;38.19;101191.41;143718;604;47004;-64
2021/06/25 07:49:18;;;;;;;20.37;6.97;;;;;;;32.75;38.76;101190.75;143721;583;46009;-64
2021/06/25 07:51:44;;;;;;;21.12;6.62;;;;;;;32.85;39.42;101194.28;143721;769;47006;-65
2021/06/25 07:54:11;;;;;;;25.08;7.03;;;;;;;32.91;39.04;101198.50;143718;607;47010;-63
2021/06/25 07:56:37;;;;;;;24.10;6.85;;;;;;;32.96;39.48;101192.72;143719;568;47006;-64
2021/06/25 07:59:04;;;;;;;19.80;6.20;;;;;;;33.02;39.17;101194.13;143721;589;46927;-64
2021/06/25 08:01:30;;;;;;;22.92;7.45;;;;;;;33.12;38.95;101192.91;143718;609;47004;-64
2021/06/25 08:03:57;;;;;;;23.60;6.62;;;;;;;33.16;38.95;101191.06;143715;572;47012;-64
2021/06/25 08:06:23;;;;;;;24.65;6.60;;;;;;;33.16;39.05;101193.06;143717;569;47004;-63
2021/06/25 08:08:50;;;;;;;21.65;6.30;;;;;;;33.14;39.30;101189.78;143714;648;47006;-64
2021/06/25 08:11:16;;;;;;;18.05;5.90;;;;;;;33.10;39.91;101201.59;143724;624;47006;-64
2021/06/25 08:13:43;;;;;;;23.73;6.15;;;;;;;33.06;39.89;101195.09;143722;627;46021;-64
2021/06/25 08:16:09;;;;;;;24.73;6.47;;;;;;;33.07;40.46;101205.06;143720;661;47004;-64
2021/06/25 08:18:35;;;;;;;18.33;6.30;;;;;;;33.17;39.86;101203.03;143721;631;46010;-64
2021/06/25 08:21:02;;;;;;;22.62;6.85;;;;;;;33.18;40.00;101199.91;143721;603;46008;-64
2021/06/25 08:23:29;;;;;;;19.58;6.60;;;;;;;33.19;38.50;101198.75;143718;566;46008;-64
2021/06/25 08:25:55;;;;;;;25.00;6.87;;;;;;;33.22;39.24;101200.84;143718;629;47004;-63
2021/06/25 08:28:22;;;;;;;30.40;7.85;;;;;;;33.36;39.07;101199.75;143717;575;46008;-63
2021/06/25 08:30:49;;;;;;;19.77;6.82;;;;;;;33.46;39.59;101195.72;143717;592;47006;-63
2021/06/25 08:33:15;;;;;;;18.90;7.85;;;;;;;33.54;39.22;101195.63;143717;620;47012;-64
2021/06/25 08:35:42;;;;;;;20.25;7.32;;;;;;;33.62;39.45;101188.31;143717;567;47004;-63
2021/06/25 08:38:08;;;;;;;23.92;7.60;;;;;;;33.63;38.86;101186.34;143720;569;46925;-63
2021/06/25 08:40:36;;;;;;;20.48;6.97;;;;;;;33.69;38.77;101183.00;143716;607;49006;-63
2021/06/25 08:43:03;;;;;;;19.10;6.78;;;;;;;33.71;38.46;101177.88;143717;660;47012;-63
2021/06/25 08:45:29;;;;;;;22.25;7.68;;;;;;;33.75;38.74;101172.44;143717;566;47004;-63
2021/06/25 08:47:56;;;;;;;21.92;6.95;;;;;;;33.88;39.80;101164.09;143721;590;46007;-64
2021/06/25 08:50:23;;;;;;;20.17;7.32;;;;;;;33.98;39.92;101155.28;143718;572;47004;-64
2021/06/25 08:52:52;;;;;;;19.58;6.87;;;;;;;34.09;40.32;101155.63;143717;583;46012;-63
2021/06/25 08:55:20;;;;;;;24.20;7.72;;;;;;;34.17;39.21;101146.34;143716;624;47010;-63
2021/06/25 08:57:47;;;;;;;21.15;6.78;;;;;;;34.25;39.67;101153.75;143718;607;46006;-63
2021/06/25 09:00:16;;;;;;;20.15;7.30;;;;;;;34.30;38.65;101153.50;143724;573;47006;-63
2021/06/25 09:02:45;;;;;;;16.95;7.60;;;;;;;34.35;38.27;101152.44;143720;573;47010;-63
2021/06/25 09:05:29;;;;;;;23.70;7.03;;;;;;;34.41;37.50;101148.28;143721;596;47006;-62
2021/06/25 09:07:57;;;;;;;22.10;7.45;;;;;;;34.40;36.31;101152.22;143724;630;46008;-63
2021/06/25 09:10:39;;;;;;;24.08;6.55;;;;;;;34.29;36.14;101151.09;143720;592;47008;-63
2021/06/25 09:13:11;;;;;;;24.02;7.80;;;;;;;34.33;37.66;101146.41;143719;567;47012;-63
2021/06/25 09:15:40;;;;;;;24.55;6.57;;;;;;;34.38;36.83;101151.75;143717;582;47004;-64
2021/06/25 09:18:12;;;;;;;19.52;6.35;;;;;;;34.42;37.85;101143.53;143718;568;46009;-64
2021/06/25 09:20:47;;;;;;;31.48;7.25;;;;;;;34.51;37.19;101143.41;143714;660;48002;-65
2021/06/25 09:23:21;;;;;;;20.73;6.68;;;;;;;34.51;36.82;101147.00;143716;567;47010;-62
2021/06/25 09:26:11;;;;;;;23.35;6.00;;;;;;;34.49;36.70;101146.53;143718;596;47006;-62
2021/06/25 09:28:45;;;;;;;17.80;7.28;;;;;;;34.55;37.30;101150.72;143719;573;46008;-63
2021/06/25 09:31:24;;;;;;;21.70;7.40;;;;;;;34.58;36.99;101150.00;143717;705;47002;-62
2021/06/25 09:33:56;;;;;;;28.52;7.00;;;;;;;34.43;36.64;101153.50;143720;567;46018;-63
2021/06/25 09:36:31;;;;;;;27.25;6.95;;;;;;;34.39;37.44;101152.59;143718;581;47006;-62
2021/06/25 09:39:00;;;;;;;21.42;6.18;;;;;;;34.43;37.48;101153.50;143717;613;47006;-69
2021/06/25 09:41:28;;;;;;;27.02;8.05;;;;;;;34.36;38.08;101154.06;143717;573;47002;-68
2021/06/25 09:44:02;;;;;;;21.25;7.37;;;;;;;34.44;38.59;101149.56;143714;628;47010;-69
2021/06/25 09:46:37;;;;;;;25.35;7.90;;;;;;;34.54;37.73;101154.66;143717;586;47006;-68
2021/06/25 09:49:06;;;;;;;20.85;7.53;;;;;;;34.59;38.21;101151.63;143716;601;47006;-68
2021/06/25 09:51:34;;;;;;;19.25;6.37;;;;;;;34.68;37.54;101153.44;143718;597;47006;-69
2021/06/25 09:54:18;;;;;;;24.83;7.60;;;;;;;34.66;37.86;101151.03;143721;573;46010;-68
2021/06/25 09:56:55;;;;;;;21.20;7.65;;;;;;;34.64;38.26;101146.94;143719;569;47004;-69
2021/06/25 09:59:37;;;;;;;18.92;7.07;;;;;;;34.75;37.97;101148.09;143719;577;47008;-68
2021/06/25 10:02:38;;;;;;;22.83;7.75;;;;;;;34.76;38.48;101144.94;143723;692;47004;-68
2021/06/25 10:05:14;;;;;;;17.12;6.85;;;;;;;34.86;37.58;101140.81;143719;614;46923;-69
2021/06/25 10:07:41;;;;;;;23.35;8.48;;;;;;;34.96;36.68;101133.94;143720;592;47006;-69
2021/06/25 10:10:10;;;;;;;18.25;6.80;;;;;;;35.02;38.03;101124.16;143717;596;46006;-68
2021/06/25 10:12:39;;;;;;;22.15;7.15;;;;;;;35.11;38.49;101118.41;143717;603;48000;-68
2021/06/25 10:15:07;;;;;;;19.20;6.45;;;;;;;35.17;37.49;101125.34;143720;572;46012;-68
2021/06/25 10:17:35;;;;;;;21.73;7.85;;;;;;;35.28;37.55;101119.25;143719;612;47007;-63
2021/06/25 10:20:12;;;;;;;24.65;6.97;;;;;;;35.36;37.98;101112.66;143723;578;46006;-69
2021/06/25 10:22:43;;;;;;;26.15;7.78;;;;;;;35.47;38.19;101108.19;143717;627;47004;-71
2021/06/25 10:25:11;;;;;;;22.75;6.93;;;;;;;35.56;37.87;101107.19;143719;592;47010;-68
2021/06/25 10:27:39;;;;;;;17.62;6.60;;;;;;;35.49;37.42;101105.03;143720;627;47006;-68
2021/06/25 10:30:07;;;;;;;19.70;8.05;;;;;;;35.47;37.26;101105.41;143719;643;46006;-68
2021/06/25 10:32:37;;;;;;;21.45;7.15;;;;;;;35.56;37.02;101096.03;143720;585;47005;-68
2021/06/25 10:35:13;;;;;;;15.55;7.07;;;;;;;35.60;35.15;101094.94;143715;569;47008;-69
2021/06/25 10:37:46;;;;;;;22.25;6.65;;;;;;;35.70;35.11;101081.59;143720;732;47004;-69
2021/06/25 10:40:25;;;;;;;29.85;7.07;;;;;;;35.74;34.56;101077.69;143719;632;47009;-70
2021/06/25 10:42:53;;;;;;;20.37;7.25;;;;;;;35.81;34.42;101072.28;143723;578;47004;-70
2021/06/25 10:45:40;;;;;;;26.52;7.82;;;;;;;35.88;34.62;101076.41;143719;567;47008;-70
2021/06/25 10:48:07;;;;;;;20.85;6.70;;;;;;;35.92;33.67;101074.50;143720;629;47002;-69
2021/06/25 10:50:34;;;;;;;20.75;7.00;;;;;;;35.94;34.07;101077.75;143720;575;47008;-70
2021/06/25 10:53:13;;;;;;;21.58;7.53;;;;;;;35.92;34.35;101069.72;143721;601;47006;-69
2021/06/25 10:55:46;;;;;;;22.25;7.32;;;;;;;35.88;33.92;101079.19;143721;568;46028;-69
2021/06/25 10:58:26;;;;;;;21.62;6.60;;;;;;;35.73;34.45;101070.50;143716;640;47006;-69
2021/06/25 11:00:56;;;;;;;22.60;6.80;;;;;;;35.80;34.10;101067.87;143714;610;47006;-69
2021/06/25 11:03:43;;;;;;;19.73;7.53;;;;;;;35.89;32.81;101055.66;143717;601;47004;-68
2021/06/25 11:06:52;;;;;;;19.17;5.62;;;;;;;35.93;32.89;101064.94;143719;572;47004;-69
2021/06/25 11:09:18;;;;;;;22.50;6.07;;;;;;;36.02;32.81;101059.97;143717;593;47004;-69
2021/06/25 11:11:45;;;;;;;25.95;6.82;;;;;;;36.15;32.42;101057.06;143719;633;47008;-69
2021/06/25 11:14:29;;;;;;;23.17;6.30;;;;;;;36.24;30.76;101052.06;143717;584;47004;-68
2021/06/25 11:16:56;;;;;;;20.50;6.28;;;;;;;36.31;31.66;101054.19;143718;613;47010;-69
2021/06/25 11:19:41;;;;;;;28.08;6.22;;;;;;;36.37;31.40;101058.31;143718;592;48004;-69
2021/06/25 11:22:39;;;;;;;25.62;6.72;;;;;;;36.40;32.57;101049.19;143719;601;46006;-70
2021/06/25 11:25:11;;;;;;;25.27;6.70;;;;;;;36.34;32.62;101039.47;143725;612;47005;-70
2021/06/25 11:28:22;;;;;;;17.85;6.82;;;;;;;36.37;31.64;101044.34;143717;567;47010;-69
2021/06/25 11:31:00;;;;;;;17.35;6.30;;;;;;;36.32;32.45;101048.25;143716;579;47006;-69
2021/06/25 11:34:04;;;;;;;15.93;6.15;;;;;;;36.31;31.99;101043.81;143718;589;47006;-63
2021/06/25 11:36:54;;;;;;;17.98;6.10;;;;;;;36.29;32.02;101048.97;143724;579;47004;-62